sensor_id;sensor_type;location;lat;lon;timestamp;pressure;altitude;pressure_sealevel;temperature;humidity
38912;BME280;28444;48.056;14.408;2023-06-10T00:00:11;97236.56;;;15.27;99.79
38912;BME280;28444;48.056;14.408;2023-06-10T00:02:59;97235.84;;;15.27;99.86
38912;BME280;28444;48.056;14.408;2023-06-10T00:05:46;97244.94;;;15.17;100.00
38912;BME280;28444;48.056;14.408;2023-06-10T00:08:33;97234.53;;;15.16;100.00
38912;BME280;28444;48.056;14.408;2023-06-10T00:11:21;97238.97;;;15.09;100.00
38912;BME280;28444;48.056;14.408;2023-06-10T00:14:08;97233.97;;;15.06;100.00
38912;BME280;28444;48.056;14.408;2023-06-10T00:16:55;97235.28;;;15.05;100.00
38912;BME280;28444;48.056;14.408;2023-06-10T00:19:42;97233.84;;;15.04;100.00
38912;BME280;28444;48.056;14.408;2023-06-10T00:22:30;97233.16;;;15.03;100.00
38912;BME280;28444;48.056;14.408;2023-06-10T00:25:19;97220.09;;;15.04;100.00
38912;BME280;28444;48.056;14.408;2023-06-10T00:28:05;97234.81;;;15.08;100.00
38912;BME280;28444;48.056;14.408;2023-06-10T00:30:52;97232.53;;;15.05;99.80
38912;BME280;28444;48.056;14.408;2023-06-10T00:33:39;97238.75;;;15.05;99.53
38912;BME280;28444;48.056;14.408;2023-06-10T00:36:26;97232.31;;;15.01;99.11
38912;BME280;28444;48.056;14.408;2023-06-10T00:39:13;97228.72;;;14.98;98.68
38912;BME280;28444;48.056;14.408;2023-06-10T00:42:00;97237.94;;;14.91;98.74
38912;BME280;28444;48.056;14.408;2023-06-10T00:44:51;97235.19;;;14.91;98.70
38912;BME280;28444;48.056;14.408;2023-06-10T00:47:39;97237.81;;;14.89;98.37
38912;BME280;28444;48.056;14.408;2023-06-10T00:50:26;97240.44;;;14.87;98.70
38912;BME280;28444;48.056;14.408;2023-06-10T00:53:14;97242.34;;;14.84;97.98
38912;BME280;28444;48.056;14.408;2023-06-10T00:56:01;97245.34;;;14.77;98.26
38912;BME280;28444;48.056;14.408;2023-06-10T00:58:48;97241.41;;;14.68;99.18
38912;BME280;28444;48.056;14.408;2023-06-10T01:01:35;97233.75;;;14.66;100.00
38912;BME280;28444;48.056;14.408;2023-06-10T01:04:24;97237.72;;;14.63;99.72
38912;BME280;28444;48.056;14.408;2023-06-10T01:07:23;97240.34;;;14.61;100.00
38912;BME280;28444;48.056;14.408;2023-06-10T01:10:11;97233.63;;;14.53;100.00
38912;BME280;28444;48.056;14.408;2023-06-10T01:13:03;97228.72;;;14.51;99.66
38912;BME280;28444;48.056;14.408;2023-06-10T01:15:53;97234.84;;;14.50;99.25
38912;BME280;28444;48.056;14.408;2023-06-10T01:18:40;97235.91;;;14.56;99.49
38912;BME280;28444;48.056;14.408;2023-06-10T01:21:28;97232.06;;;14.61;98.99
38912;BME280;28444;48.056;14.408;2023-06-10T01:24:18;97232.78;;;14.62;97.96
38912;BME280;28444;48.056;14.408;2023-06-10T01:27:12;97236.50;;;14.55;98.57
38912;BME280;28444;48.056;14.408;2023-06-10T01:30:08;97238.84;;;14.49;99.05
38912;BME280;28444;48.056;14.408;2023-06-10T01:32:59;97237.94;;;14.56;99.38
38912;BME280;28444;48.056;14.408;2023-06-10T01:35:47;97239.72;;;14.51;99.36
38912;BME280;28444;48.056;14.408;2023-06-10T01:38:45;97238.41;;;14.52;98.46
38912;BME280;28444;48.056;14.408;2023-06-10T01:41:33;97238.03;;;14.46;97.99
38912;BME280;28444;48.056;14.408;2023-06-10T01:44:22;97239.69;;;14.39;99.15
38912;BME280;28444;48.056;14.408;2023-06-10T01:47:09;97231.66;;;14.32;98.53
38912;BME280;28444;48.056;14.408;2023-06-10T01:49:56;97237.56;;;14.38;98.91
38912;BME280;28444;48.056;14.408;2023-06-10T01:52:43;97236.34;;;14.41;98.33
38912;BME280;28444;48.056;14.408;2023-06-10T01:55:30;97238.38;;;14.40;98.07
38912;BME280;28444;48.056;14.408;2023-06-10T01:58:17;97239.22;;;14.31;97.56
38912;BME280;28444;48.056;14.408;2023-06-10T02:01:04;97238.03;;;14.34;98.06
38912;BME280;28444;48.056;14.408;2023-06-10T02:03:51;97237.75;;;14.30;98.24
38912;BME280;28444;48.056;14.408;2023-06-10T02:06:38;97240.97;;;14.27;98.60
38912;BME280;28444;48.056;14.408;2023-06-10T02:09:25;97244.31;;;14.13;98.67
38912;BME280;28444;48.056;14.408;2023-06-10T02:12:12;97249.50;;;13.97;100.00
38912;BME280;28444;48.056;14.408;2023-06-10T02:15:02;97249.56;;;14.09;99.89
38912;BME280;28444;48.056;14.408;2023-06-10T02:17:49;97256.50;;;14.10;99.70
38912;BME280;28444;48.056;14.408;2023-06-10T02:20:38;97247.78;;;14.14;98.35
38912;BME280;28444;48.056;14.408;2023-06-10T02:23:24;97252.06;;;14.05;99.82
38912;BME280;28444;48.056;14.408;2023-06-10T02:26:11;97257.22;;;14.11;99.29
38912;BME280;28444;48.056;14.408;2023-06-10T02:28:58;97251.84;;;14.13;98.67
38912;BME280;28444;48.056;14.408;2023-06-10T02:31:45;97255.78;;;14.10;98.84
38912;BME280;28444;48.056;14.408;2023-06-10T02:34:32;97255.84;;;14.00;98.96
38912;BME280;28444;48.056;14.408;2023-06-10T02:37:20;97255.47;;;13.94;99.39
38912;BME280;28444;48.056;14.408;2023-06-10T02:40:07;97256.69;;;13.91;100.00
38912;BME280;28444;48.056;14.408;2023-06-10T02:42:55;97257.50;;;13.93;100.00
38912;BME280;28444;48.056;14.408;2023-06-10T02:45:42;97262.63;;;13.87;99.95
38912;BME280;28444;48.056;14.408;2023-06-10T02:48:29;97267.06;;;13.92;99.95
38912;BME280;28444;48.056;14.408;2023-06-10T02:51:16;97263.47;;;13.90;100.00
38912;BME280;28444;48.056;14.408;2023-06-10T02:54:03;97273.25;;;13.81;100.00
38912;BME280;28444;48.056;14.408;2023-06-10T02:56:51;97268.84;;;13.88;99.74
38912;BME280;28444;48.056;14.408;2023-06-10T02:59:38;97258.22;;;13.94;98.75
38912;BME280;28444;48.056;14.408;2023-06-10T03:02:25;97275.13;;;13.79;98.79
38912;BME280;28444;48.056;14.408;2023-06-10T03:05:15;97267.75;;;13.81;98.49
38912;BME280;28444;48.056;14.408;2023-06-10T03:08:04;97273.50;;;13.85;99.05
38912;BME280;28444;48.056;14.408;2023-06-10T03:10:51;97282.06;;;13.80;99.72
38912;BME280;28444;48.056;14.408;2023-06-10T03:13:40;97275.03;;;13.77;99.79
38912;BME280;28444;48.056;14.408;2023-06-10T03:16:28;97280.28;;;13.72;99.52
38912;BME280;28444;48.056;14.408;2023-06-10T03:19:17;97280.13;;;13.70;99.72
38912;BME280;28444;48.056;14.408;2023-06-10T03:22:11;97288.75;;;13.77;100.00
38912;BME280;28444;48.056;14.408;2023-06-10T03:24:58;97284.22;;;13.81;100.00
38912;BME280;28444;48.056;14.408;2023-06-10T03:27:46;97287.84;;;13.84;99.56
38912;BME280;28444;48.056;14.408;2023-06-10T03:30:33;97285.88;;;13.75;99.36
38912;BME280;28444;48.056;14.408;2023-06-10T03:33:20;97290.84;;;13.66;100.00
38912;BME280;28444;48.056;14.408;2023-06-10T03:36:07;97291.56;;;13.67;100.00
38912;BME280;28444;48.056;14.408;2023-06-10T03:38:54;97296.75;;;13.72;100.00
38912;BME280;28444;48.056;14.408;2023-06-10T03:41:43;97301.72;;;13.64;100.00
38912;BME280;28444;48.056;14.408;2023-06-10T03:44:30;97308.50;;;13.42;99.48
38912;BME280;28444;48.056;14.408;2023-06-10T03:47:18;97310.53;;;13.41;100.00
38912;BME280;28444;48.056;14.408;2023-06-10T03:50:05;97314.59;;;13.40;100.00
38912;BME280;28444;48.056;14.408;2023-06-10T03:52:52;97315.13;;;13.48;100.00
38912;BME280;28444;48.056;14.408;2023-06-10T03:55:39;97301.41;;;13.48;100.00
38912;BME280;28444;48.056;14.408;2023-06-10T03:58:26;97307.84;;;13.53;100.00
38912;BME280;28444;48.056;14.408;2023-06-10T04:01:13;97311.59;;;13.58;100.00
38912;BME280;28444;48.056;14.408;2023-06-10T04:04:00;97310.09;;;13.66;100.00
38912;BME280;28444;48.056;14.408;2023-06-10T04:06:47;97308.31;;;13.71;100.00
38912;BME280;28444;48.056;14.408;2023-06-10T04:09:35;97314.00;;;13.85;100.00
38912;BME280;28444;48.056;14.408;2023-06-10T04:12:23;97314.50;;;13.93;100.00
38912;BME280;28444;48.056;14.408;2023-06-10T04:15:10;97311.56;;;14.01;100.00
38912;BME280;28444;48.056;14.408;2023-06-10T04:17:57;97318.03;;;14.05;99.95
38912;BME280;28444;48.056;14.408;2023-06-10T04:20:44;97320.38;;;14.20;99.44
38912;BME280;28444;48.056;14.408;2023-06-10T04:23:31;97311.53;;;14.34;99.39
38912;BME280;28444;48.056;14.408;2023-06-10T04:26:18;97315.06;;;14.46;99.00
38912;BME280;28444;48.056;14.408;2023-06-10T04:29:05;97323.97;;;14.56;99.12
38912;BME280;28444;48.056;14.408;2023-06-10T04:31:52;97317.72;;;14.56;97.68
38912;BME280;28444;48.056;14.408;2023-06-10T04:34:39;97310.06;;;14.54;96.85
38912;BME280;28444;48.056;14.408;2023-06-10T04:37:26;97306.97;;;14.60;96.79
38912;BME280;28444;48.056;14.408;2023-06-10T04:40:15;97310.31;;;14.58;96.81
38912;BME280;28444;48.056;14.408;2023-06-10T04:43:03;97317.75;;;14.67;96.42
38912;BME280;28444;48.056;14.408;2023-06-10T04:45:50;97314.16;;;14.77;96.43
38912;BME280;28444;48.056;14.408;2023-06-10T04:48:38;97315.81;;;14.70;96.88
38912;BME280;28444;48.056;14.408;2023-06-10T04:51:25;97323.03;;;14.87;95.61
38912;BME280;28444;48.056;14.408;2023-06-10T04:54:12;97321.84;;;14.90;95.18
38912;BME280;28444;48.056;14.408;2023-06-10T04:56:59;97319.56;;;14.98;94.74
38912;BME280;28444;48.056;14.408;2023-06-10T04:59:47;97322.69;;;15.04;94.46
38912;BME280;28444;48.056;14.408;2023-06-10T05:02:34;97326.03;;;15.14;93.58
38912;BME280;28444;48.056;14.408;2023-06-10T05:05:21;97328.66;;;15.12;94.11
38912;BME280;28444;48.056;14.408;2023-06-10T05:08:08;97317.41;;;15.20;93.22
38912;BME280;28444;48.056;14.408;2023-06-10T05:10:55;97319.66;;;15.24;93.47
38912;BME280;28444;48.056;14.408;2023-06-10T05:13:42;97315.47;;;15.23;94.16
38912;BME280;28444;48.056;14.408;2023-06-10T05:16:30;97308.88;;;15.28;94.27
38912;BME280;28444;48.056;14.408;2023-06-10T05:19:17;97315.50;;;15.11;96.16
38912;BME280;28444;48.056;14.408;2023-06-10T05:22:05;97318.09;;;15.21;96.44
38912;BME280;28444;48.056;14.408;2023-06-10T05:24:51;97307.09;;;15.32;95.08
38912;BME280;28444;48.056;14.408;2023-06-10T05:27:39;97313.25;;;15.56;93.51
38912;BME280;28444;48.056;14.408;2023-06-10T05:30:28;97310.72;;;15.72;92.52
38912;BME280;28444;48.056;14.408;2023-06-10T05:33:15;97315.84;;;15.89;92.45
38912;BME280;28444;48.056;14.408;2023-06-10T05:36:02;97330.09;;;15.86;92.32
38912;BME280;28444;48.056;14.408;2023-06-10T05:38:49;97323.63;;;15.93;92.25
38912;BME280;28444;48.056;14.408;2023-06-10T05:41:36;97326.44;;;16.07;92.24
38912;BME280;28444;48.056;14.408;2023-06-10T05:44:23;97326.16;;;16.15;91.13
38912;BME280;28444;48.056;14.408;2023-06-10T05:47:10;97327.22;;;16.21;92.03
38912;BME280;28444;48.056;14.408;2023-06-10T05:49:57;97326.59;;;16.23;91.70
38912;BME280;28444;48.056;14.408;2023-06-10T05:52:44;97319.44;;;16.43;90.86
38912;BME280;28444;48.056;14.408;2023-06-10T05:55:31;97311.19;;;16.57;90.59
38912;BME280;28444;48.056;14.408;2023-06-10T05:58:18;97313.03;;;16.66;89.06
38912;BME280;28444;48.056;14.408;2023-06-10T06:01:05;97317.19;;;16.79;88.28
38912;BME280;28444;48.056;14.408;2023-06-10T06:03:52;97304.25;;;16.70;87.28
38912;BME280;28444;48.056;14.408;2023-06-10T06:06:39;97309.28;;;16.73;87.61
38912;BME280;28444;48.056;14.408;2023-06-10T06:09:27;97308.31;;;16.94;87.41
38912;BME280;28444;48.056;14.408;2023-06-10T06:12:14;97307.50;;;17.05;86.67
38912;BME280;28444;48.056;14.408;2023-06-10T06:15:01;97316.63;;;17.08;86.09
38912;BME280;28444;48.056;14.408;2023-06-10T06:17:48;97321.44;;;17.21;85.68
38912;BME280;28444;48.056;14.408;2023-06-10T06:20:35;97318.38;;;17.29;86.30
38912;BME280;28444;48.056;14.408;2023-06-10T06:23:22;97315.69;;;17.31;86.37
38912;BME280;28444;48.056;14.408;2023-06-10T06:26:09;97310.56;;;17.39;86.37
38912;BME280;28444;48.056;14.408;2023-06-10T06:28:56;97307.78;;;17.53;86.17
38912;BME280;28444;48.056;14.408;2023-06-10T06:31:43;97317.50;;;17.68;84.12
38912;BME280;28444;48.056;14.408;2023-06-10T06:34:30;97314.22;;;17.71;83.13
38912;BME280;28444;48.056;14.408;2023-06-10T06:37:18;97319.03;;;17.71;85.13
38912;BME280;28444;48.056;14.408;2023-06-10T06:40:05;97315.75;;;17.74;85.41
38912;BME280;28444;48.056;14.408;2023-06-10T06:42:52;97318.63;;;17.90;85.76
38912;BME280;28444;48.056;14.408;2023-06-10T06:45:39;97316.44;;;17.89;85.06
38912;BME280;28444;48.056;14.408;2023-06-10T06:48:26;97315.13;;;18.19;83.33
38912;BME280;28444;48.056;14.408;2023-06-10T06:51:14;97316.41;;;18.48;81.78
38912;BME280;28444;48.056;14.408;2023-06-10T06:54:01;97320.78;;;18.37;81.02
38912;BME280;28444;48.056;14.408;2023-06-10T06:56:48;97318.47;;;18.47;81.32
38912;BME280;28444;48.056;14.408;2023-06-10T06:59:35;97316.06;;;18.40;81.39
38912;BME280;28444;48.056;14.408;2023-06-10T07:02:22;97319.41;;;18.22;81.25
38912;BME280;28444;48.056;14.408;2023-06-10T07:05:10;97326.13;;;18.33;83.13
38912;BME280;28444;48.056;14.408;2023-06-10T07:07:57;97319.84;;;18.17;82.59
38912;BME280;28444;48.056;14.408;2023-06-10T07:10:44;97322.78;;;18.50;81.66
38912;BME280;28444;48.056;14.408;2023-06-10T07:13:31;97322.94;;;18.39;82.09
38912;BME280;28444;48.056;14.408;2023-06-10T07:16:18;97321.44;;;18.51;82.66
38912;BME280;28444;48.056;14.408;2023-06-10T07:19:07;97329.19;;;18.85;82.09
38912;BME280;28444;48.056;14.408;2023-06-10T07:21:54;97328.38;;;18.82;81.58
38912;BME280;28444;48.056;14.408;2023-06-10T07:24:41;97332.03;;;18.71;82.92
38912;BME280;28444;48.056;14.408;2023-06-10T07:27:28;97328.72;;;18.90;83.63
38912;BME280;28444;48.056;14.408;2023-06-10T07:30:15;97324.94;;;19.31;81.29
38912;BME280;28444;48.056;14.408;2023-06-10T07:33:02;97331.66;;;19.76;78.91
38912;BME280;28444;48.056;14.408;2023-06-10T07:35:49;97329.44;;;20.08;78.17
38912;BME280;28444;48.056;14.408;2023-06-10T07:38:36;97326.53;;;20.22;77.12
38912;BME280;28444;48.056;14.408;2023-06-10T07:41:24;97328.91;;;20.29;76.80
38912;BME280;28444;48.056;14.408;2023-06-10T07:44:11;97339.69;;;20.39;77.32
38912;BME280;28444;48.056;14.408;2023-06-10T07:46:58;97330.94;;;20.47;77.95
38912;BME280;28444;48.056;14.408;2023-06-10T07:49:45;97332.88;;;20.60;78.06
38912;BME280;28444;48.056;14.408;2023-06-10T07:52:32;97338.00;;;20.67;75.80
38912;BME280;28444;48.056;14.408;2023-06-10T07:55:19;97335.94;;;20.68;76.60
38912;BME280;28444;48.056;14.408;2023-06-10T07:58:06;97336.22;;;20.56;77.95
38912;BME280;28444;48.056;14.408;2023-06-10T08:00:53;97332.88;;;20.60;77.65
38912;BME280;28444;48.056;14.408;2023-06-10T08:03:40;97329.19;;;20.73;78.70
38912;BME280;28444;48.056;14.408;2023-06-10T08:06:27;97330.78;;;20.98;77.00
38912;BME280;28444;48.056;14.408;2023-06-10T08:09:14;97334.13;;;20.95;76.66
38912;BME280;28444;48.056;14.408;2023-06-10T08:12:01;97331.72;;;21.25;77.21
38912;BME280;28444;48.056;14.408;2023-06-10T08:14:48;97336.47;;;21.62;75.38
38912;BME280;28444;48.056;14.408;2023-06-10T08:17:37;97338.06;;;21.89;74.98
38912;BME280;28444;48.056;14.408;2023-06-10T08:20:25;97345.47;;;21.60;74.02
38912;BME280;28444;48.056;14.408;2023-06-10T08:23:12;97347.09;;;21.68;74.82
38912;BME280;28444;48.056;14.408;2023-06-10T08:25:59;97340.69;;;21.63;74.55
38912;BME280;28444;48.056;14.408;2023-06-10T08:28:46;97333.94;;;21.90;73.18
38912;BME280;28444;48.056;14.408;2023-06-10T08:31:33;97338.91;;;21.94;73.31
38912;BME280;28444;48.056;14.408;2023-06-10T08:34:20;97342.16;;;22.08;72.69
38912;BME280;28444;48.056;14.408;2023-06-10T08:37:07;97334.13;;;22.18;72.88
38912;BME280;28444;48.056;14.408;2023-06-10T08:39:54;97348.31;;;22.04;70.75
38912;BME280;28444;48.056;14.408;2023-06-10T08:45:37;97345.91;;;22.17;70.96
38912;BME280;28444;48.056;14.408;2023-06-10T08:48:25;97352.56;;;22.07;71.55
38912;BME280;28444;48.056;14.408;2023-06-10T08:51:15;97346.97;;;22.07;72.00
38912;BME280;28444;48.056;14.408;2023-06-10T08:54:30;97352.50;;;22.05;72.22
38912;BME280;28444;48.056;14.408;2023-06-10T08:57:16;97347.44;;;22.00;70.76
38912;BME280;28444;48.056;14.408;2023-06-10T09:00:07;97350.63;;;22.12;72.63
38912;BME280;28444;48.056;14.408;2023-06-10T09:02:58;97354.84;;;22.35;72.13
38912;BME280;28444;48.056;14.408;2023-06-10T09:05:51;97346.09;;;22.45;70.76
38912;BME280;28444;48.056;14.408;2023-06-10T09:08:38;97352.56;;;22.51;69.43
38912;BME280;28444;48.056;14.408;2023-06-10T09:11:26;97348.47;;;22.78;69.74
38912;BME280;28444;48.056;14.408;2023-06-10T09:14:13;97350.59;;;22.80;69.79
38912;BME280;28444;48.056;14.408;2023-06-10T09:17:01;97346.34;;;23.01;69.59
38912;BME280;28444;48.056;14.408;2023-06-10T09:19:48;97351.38;;;22.82;67.50
38912;BME280;28444;48.056;14.408;2023-06-10T09:22:36;97344.31;;;22.79;70.38
38912;BME280;28444;48.056;14.408;2023-06-10T09:25:37;97344.09;;;22.95;67.88
38912;BME280;28444;48.056;14.408;2023-06-10T09:28:25;97349.31;;;23.07;67.82
38912;BME280;28444;48.056;14.408;2023-06-10T09:31:12;97348.16;;;23.16;69.44
38912;BME280;28444;48.056;14.408;2023-06-10T09:34:14;97346.22;;;23.21;68.98
38912;BME280;28444;48.056;14.408;2023-06-10T09:37:03;97344.75;;;23.20;67.81
38912;BME280;28444;48.056;14.408;2023-06-10T09:40:02;97345.44;;;23.18;68.26
38912;BME280;28444;48.056;14.408;2023-06-10T09:42:59;97348.72;;;23.11;66.98
38912;BME280;28444;48.056;14.408;2023-06-10T09:45:50;97354.06;;;23.28;67.40
38912;BME280;28444;48.056;14.408;2023-06-10T09:48:44;97347.34;;;23.38;66.74
38912;BME280;28444;48.056;14.408;2023-06-10T09:51:31;97348.66;;;23.35;66.32
38912;BME280;28444;48.056;14.408;2023-06-10T09:54:20;97343.94;;;23.41;67.22
38912;BME280;28444;48.056;14.408;2023-06-10T09:57:07;97350.50;;;23.52;66.80
38912;BME280;28444;48.056;14.408;2023-06-10T09:59:56;97342.84;;;23.78;66.81
38912;BME280;28444;48.056;14.408;2023-06-10T10:02:50;97352.31;;;23.95;65.21
38912;BME280;28444;48.056;14.408;2023-06-10T10:05:38;97344.91;;;24.06;64.80
38912;BME280;28444;48.056;14.408;2023-06-10T10:08:28;97346.47;;;24.13;64.48
38912;BME280;28444;48.056;14.408;2023-06-10T10:11:21;97349.09;;;24.07;63.66
38912;BME280;28444;48.056;14.408;2023-06-10T10:14:09;97339.03;;;23.94;65.36
38912;BME280;28444;48.056;14.408;2023-06-10T10:16:57;97345.50;;;24.02;66.53
38912;BME280;28444;48.056;14.408;2023-06-10T10:19:47;97340.19;;;23.85;63.67
38912;BME280;28444;48.056;14.408;2023-06-10T10:22:39;97333.81;;;23.80;63.91
38912;BME280;28444;48.056;14.408;2023-06-10T10:25:37;97332.69;;;23.91;64.46
38912;BME280;28444;48.056;14.408;2023-06-10T10:28:29;97335.13;;;24.07;64.79
38912;BME280;28444;48.056;14.408;2023-06-10T10:31:21;97327.53;;;24.10;63.85
38912;BME280;28444;48.056;14.408;2023-06-10T10:34:12;97317.44;;;24.26;64.68
38912;BME280;28444;48.056;14.408;2023-06-10T10:37:02;97316.06;;;24.27;63.59
38912;BME280;28444;48.056;14.408;2023-06-10T10:39:50;97320.25;;;24.26;63.55
38912;BME280;28444;48.056;14.408;2023-06-10T10:42:38;97311.09;;;24.24;62.78
38912;BME280;28444;48.056;14.408;2023-06-10T10:45:28;97313.28;;;24.27;63.03
38912;BME280;28444;48.056;14.408;2023-06-10T10:48:15;97312.13;;;24.39;60.37
38912;BME280;28444;48.056;14.408;2023-06-10T10:51:03;97311.88;;;24.26;61.12
38912;BME280;28444;48.056;14.408;2023-06-10T10:54:14;97312.03;;;24.35;63.87
38912;BME280;28444;48.056;14.408;2023-06-10T11:00:01;97302.00;;;24.54;60.46
38912;BME280;28444;48.056;14.408;2023-06-10T11:02:49;97305.72;;;24.64;61.00
38912;BME280;28444;48.056;14.408;2023-06-10T11:05:43;97306.84;;;24.51;61.60
38912;BME280;28444;48.056;14.408;2023-06-10T11:11:25;97297.13;;;24.24;62.55
38912;BME280;28444;48.056;14.408;2023-06-10T11:14:26;97293.84;;;24.01;63.99
38912;BME280;28444;48.056;14.408;2023-06-10T11:17:21;97290.66;;;23.85;65.31
38912;BME280;28444;48.056;14.408;2023-06-10T11:20:08;97292.78;;;23.87;64.32
38912;BME280;28444;48.056;14.408;2023-06-10T11:22:58;97291.38;;;23.86;63.24
38912;BME280;28444;48.056;14.408;2023-06-10T11:25:47;97277.47;;;23.88;62.61
38912;BME280;28444;48.056;14.408;2023-06-10T11:28:34;97273.38;;;23.93;62.72
38912;BME280;28444;48.056;14.408;2023-06-10T11:31:38;97271.09;;;23.83;64.46
38912;BME280;28444;48.056;14.408;2023-06-10T11:34:26;97269.56;;;23.78;61.50
38912;BME280;28444;48.056;14.408;2023-06-10T11:37:14;97268.72;;;23.71;61.28
38912;BME280;28444;48.056;14.408;2023-06-10T11:40:02;97259.88;;;23.53;62.53
38912;BME280;28444;48.056;14.408;2023-06-10T11:42:49;97255.19;;;23.62;64.84
38912;BME280;28444;48.056;14.408;2023-06-10T11:45:36;97265.34;;;23.77;60.65
38912;BME280;28444;48.056;14.408;2023-06-10T11:48:23;97264.19;;;23.58;61.79
38912;BME280;28444;48.056;14.408;2023-06-10T11:51:10;97266.72;;;23.76;62.20
38912;BME280;28444;48.056;14.408;2023-06-10T11:53:57;97266.88;;;24.14;63.36
38912;BME280;28444;48.056;14.408;2023-06-10T11:56:44;97271.25;;;24.21;61.74
38912;BME280;28444;48.056;14.408;2023-06-10T11:59:31;97272.88;;;24.33;61.01
38912;BME280;28444;48.056;14.408;2023-06-10T12:02:18;97267.72;;;24.51;60.97
38912;BME280;28444;48.056;14.408;2023-06-10T12:05:12;97272.16;;;24.00;60.45
38912;BME280;28444;48.056;14.408;2023-06-10T12:08:09;97271.44;;;23.99;60.69
38912;BME280;28444;48.056;14.408;2023-06-10T12:10:57;97272.22;;;24.02;63.41
38912;BME280;28444;48.056;14.408;2023-06-10T12:13:48;97274.31;;;24.03;60.13
38912;BME280;28444;48.056;14.408;2023-06-10T12:16:36;97274.13;;;23.93;63.82
38912;BME280;28444;48.056;14.408;2023-06-10T12:19:23;97264.59;;;24.05;63.88
38912;BME280;28444;48.056;14.408;2023-06-10T12:22:10;97261.38;;;24.16;62.60
38912;BME280;28444;48.056;14.408;2023-06-10T12:24:59;97254.53;;;24.23;63.05
38912;BME280;28444;48.056;14.408;2023-06-10T12:27:53;97252.59;;;24.30;61.76
38912;BME280;28444;48.056;14.408;2023-06-10T12:30:41;97250.50;;;24.31;63.43
38912;BME280;28444;48.056;14.408;2023-06-10T12:33:27;97247.50;;;24.20;61.76
38912;BME280;28444;48.056;14.408;2023-06-10T12:36:17;97239.88;;;24.23;59.32
38912;BME280;28444;48.056;14.408;2023-06-10T12:39:05;97240.31;;;24.43;59.66
38912;BME280;28444;48.056;14.408;2023-06-10T12:41:55;97242.81;;;24.63;55.18
38912;BME280;28444;48.056;14.408;2023-06-10T12:44:42;97242.75;;;24.97;59.22
38912;BME280;28444;48.056;14.408;2023-06-10T12:47:34;97232.81;;;25.27;55.94
38912;BME280;28444;48.056;14.408;2023-06-10T12:50:25;97240.94;;;25.10;54.26
38912;BME280;28444;48.056;14.408;2023-06-10T12:53:12;97236.22;;;25.21;56.81
38912;BME280;28444;48.056;14.408;2023-06-10T12:55:59;97240.72;;;25.00;56.35
38912;BME280;28444;48.056;14.408;2023-06-10T12:58:49;97242.78;;;24.29;62.16
38912;BME280;28444;48.056;14.408;2023-06-10T13:01:37;97237.13;;;23.09;68.05
38912;BME280;28444;48.056;14.408;2023-06-10T13:04:25;97263.06;;;22.39;68.41
38912;BME280;28444;48.056;14.408;2023-06-10T13:07:12;97262.41;;;21.51;66.62
38912;BME280;28444;48.056;14.408;2023-06-10T13:09:59;97249.97;;;21.12;65.39
38912;BME280;28444;48.056;14.408;2023-06-10T13:12:47;97251.91;;;20.87;68.32
38912;BME280;28444;48.056;14.408;2023-06-10T13:15:34;97266.38;;;20.64;67.41
38912;BME280;28444;48.056;14.408;2023-06-10T13:18:29;97264.59;;;20.17;68.27
38912;BME280;28444;48.056;14.408;2023-06-10T13:21:16;97272.28;;;20.01;73.35
38912;BME280;28444;48.056;14.408;2023-06-10T13:24:03;97281.41;;;19.67;78.52
38912;BME280;28444;48.056;14.408;2023-06-10T13:26:50;97300.41;;;19.41;81.11
38912;BME280;28444;48.056;14.408;2023-06-10T13:29:37;97310.03;;;19.56;82.70
38912;BME280;28444;48.056;14.408;2023-06-10T13:32:24;97314.59;;;19.65;85.12
38912;BME280;28444;48.056;14.408;2023-06-10T13:35:11;97313.19;;;19.48;85.83
38912;BME280;28444;48.056;14.408;2023-06-10T13:37:58;97314.94;;;19.24;87.06
38912;BME280;28444;48.056;14.408;2023-06-10T13:40:45;97317.63;;;19.22;87.09
38912;BME280;28444;48.056;14.408;2023-06-10T13:43:32;97314.91;;;19.40;87.13
38912;BME280;28444;48.056;14.408;2023-06-10T13:46:19;97324.75;;;19.43;87.15
38912;BME280;28444;48.056;14.408;2023-06-10T13:49:08;97319.81;;;19.41;88.44
38912;BME280;28444;48.056;14.408;2023-06-10T13:51:55;97317.13;;;19.43;89.06
38912;BME280;28444;48.056;14.408;2023-06-10T13:54:42;97317.31;;;19.47;89.61
38912;BME280;28444;48.056;14.408;2023-06-10T13:57:29;97326.06;;;19.58;88.79
38912;BME280;28444;48.056;14.408;2023-06-10T14:00:16;97319.66;;;19.71;88.05
38912;BME280;28444;48.056;14.408;2023-06-10T14:03:04;97319.38;;;19.81;87.54
38912;BME280;28444;48.056;14.408;2023-06-10T14:05:51;97318.91;;;19.86;87.44
38912;BME280;28444;48.056;14.408;2023-06-10T14:08:38;97313.66;;;19.77;88.07
38912;BME280;28444;48.056;14.408;2023-06-10T14:11:25;97311.34;;;19.71;88.77
38912;BME280;28444;48.056;14.408;2023-06-10T14:14:12;97305.25;;;19.75;89.30
38912;BME280;28444;48.056;14.408;2023-06-10T14:17:01;97292.28;;;19.79;91.25
38912;BME280;28444;48.056;14.408;2023-06-10T14:19:48;97300.50;;;19.77;93.22
38912;BME280;28444;48.056;14.408;2023-06-10T14:22:35;97306.91;;;19.64;92.78
38912;BME280;28444;48.056;14.408;2023-06-10T14:25:22;97317.81;;;19.60;94.22
38912;BME280;28444;48.056;14.408;2023-06-10T14:28:09;97316.28;;;19.57;94.35
38912;BME280;28444;48.056;14.408;2023-06-10T14:30:56;97317.19;;;19.61;94.43
38912;BME280;28444;48.056;14.408;2023-06-10T14:33:44;97313.81;;;19.63;95.27
38912;BME280;28444;48.056;14.408;2023-06-10T14:36:31;97316.72;;;19.67;95.85
38912;BME280;28444;48.056;14.408;2023-06-10T14:39:18;97312.59;;;19.68;95.65
38912;BME280;28444;48.056;14.408;2023-06-10T14:42:06;97306.28;;;19.49;94.52
38912;BME280;28444;48.056;14.408;2023-06-10T14:44:53;97302.19;;;19.51;95.39